Flight Track Log - Related Links

Times and Time Zones

All times are in EDT time to prevent confusion due to time zone crossing. See the EGF4218 flight status page for this flight to view local times or setup timezone preferences in your user account.

Time Position Orientation Groundspeed Altitude Reporting Facility
EDT Latitude Longitude Course Direction KTS MPH feet Rate Location/Type
Fri 10:36:22 AM 41.9667 -87.9667 254° West 187 215 2,800  Level Chicago TRACON
Fri 10:37:22 AM 41.9333 -88.0500 242° Southwest 237 273 4,500 1,031 Climbing Chicago TRACON
Fri 10:38:00 AM 41.8941 -88.2627 255° West  Level FlightAware Approximate
Fri 10:38:30 AM 41.9225 -88.1444 261° West 227 261 5,000  Level Chicago Center
Fri 10:39:00 AM 41.8582 -88.3796 242° Southwest  Level FlightAware Approximate
Fri 10:39:32 AM 41.9242 -88.2367 271° West 247 284 6,400  Level Chicago Center
Fri 10:40:00 AM 41.8296 -88.5004 254° West  Level FlightAware Approximate
Fri 10:40:34 AM 41.9269 -88.3278 272° West 247 284 8,700  Level Chicago Center
Fri 10:41:00 AM 41.8027 -88.6223 254° West  Level FlightAware Approximate
Fri 10:41:36 AM 41.9264 -88.4219 270° West 252 290 10,700  Level Chicago Center
Fri 10:42:38 AM 41.8958 -88.5353 250° West 270 311 13,000 2,081 Climbing Chicago Center
Fri 10:43:40 AM 41.8694 -88.6308 250° West 275 316 15,000 1,839 Climbing Chicago Center
Fri 10:44:42 AM 41.8444 -88.7272 251° West 276 318 16,800 1,355 Climbing Chicago Center
Fri 10:45:44 AM 41.8181 -88.8253 250° West 282 325 17,800 1,113 Climbing Chicago Center
Fri 10:46:46 AM 41.7917 -88.9289 251° West 294 338 19,100 1,306 Climbing Chicago Center
Fri 10:47:48 AM 41.7564 -89.0597 250° West 311 358 20,500 1,306 Climbing Chicago Center
Fri 10:48:50 AM 41.7256 -89.1714 250° West 320 368 21,800 1,210 Climbing Chicago Center
Fri 10:49:52 AM 41.6950 -89.2842 250° West 324 373 23,000 1,161 Climbing Chicago Center
Fri 10:50:54 AM 41.6644 -89.3981 250° West 326 375 24,200 1,210 Climbing Chicago Center
Fri 10:51:56 AM 41.6344 -89.5111 250° West 326 375 25,500 1,065 Climbing Chicago Center
Fri 10:52:58 AM 41.5908 -89.6217 242° Southwest 330 380 26,400 919 Climbing Chicago Center
Fri 10:54:00 AM 41.5308 -89.7436 237° Southwest 331 381 27,400 823 Climbing Chicago Center
Fri 10:55:02 AM 41.4817 -89.8475 238° Southwest 331 381 28,100 823 Climbing Chicago Center
Fri 10:56:04 AM 41.4336 -89.9472 237° Southwest 325 374 29,100 1,065 Climbing Chicago Center
Fri 10:57:06 AM 41.3872 -90.0481 239° Southwest 322 371 30,300 1,113 Climbing Chicago Center
Fri 10:58:08 AM 41.3419 -90.1456 238° Southwest 315 362 31,400 1,016 Climbing Chicago Center
Fri 10:59:10 AM 41.2836 -90.2664 237° Southwest 321 369 32,400 774 Climbing Chicago Center
Fri 11:00:12 AM 41.2344 -90.3736 239° Southwest 337 388 33,000 290 Climbing Chicago Center
Fri 11:01:14 AM 41.1808 -90.4814 237° Southwest 348 400 33,000  Level Chicago Center
Fri 11:02:15 AM 41.1261 -90.5967 238° Southwest 366 421 33,000  Level Chicago Center
Fri 11:03:17 AM 41.0708 -90.7136 238° Southwest 374 430 33,000 484 Level Chicago Center
Fri 11:04:19 AM 41.0144 -90.8278 237° Southwest 373 429 34,000 968 Climbing Chicago Center
Fri 11:05:21 AM 40.9492 -90.9628 237° Southwest 366 421 35,000 484 Climbing Chicago Center
Fri 11:06:23 AM 40.8936 -91.0764 237° Southwest 368 423 35,000 339 Level Chicago Center
Fri 11:07:25 AM 40.8353 -91.1922 236° Southwest 376 433 35,700 488 Climbing Chicago Center
Fri 11:08:26 AM 40.7825 -91.3039 238° Southwest 364 419 36,000 146 Climbing Chicago Center
Fri 11:09:28 AM 40.7289 -91.4097 236° Southwest 365 420 36,000  Level Chicago Center
Fri 11:10:30 AM 40.6653 -91.5436 238° Southwest 362 417 36,000  Level Chicago Center
Fri 11:11:32 AM 40.6094 -91.6522 236° Southwest 361 415 36,000  Level Chicago Center
Fri 11:12:34 AM 40.5586 -91.7628 239° Southwest 358 412 36,000  Level Chicago Center
Fri 11:13:36 AM 40.5236 -91.8936 251° West 354 407 36,000  Level Chicago Center
Fri 11:14:45 AM 40.4744 -92.0233 244° Southwest 354 407 36,000  Level Kansas City Center
Fri 11:15:49 AM 40.4233 -92.1447 241° Southwest 351 404 36,000  Level Kansas City Center
Fri 11:16:50 AM 40.3753 -92.2592 241° Southwest 355 409 36,000  Level Kansas City Center
Fri 11:17:51 AM 40.3228 -92.3706 238° Southwest 357 411 36,000  Level Kansas City Center
Fri 11:18:52 AM 40.2767 -92.4956 244° Southwest 352 405 36,000  Level Kansas City Center
Fri 11:19:55 AM 40.2294 -92.6053 241° Southwest 357 411 36,000  Level Kansas City Center
Fri 11:20:56 AM 40.1808 -92.7139 240° Southwest 360 414 36,000  Level Kansas City Center
Fri 11:21:57 AM 40.1256 -92.8419 241° Southwest 361 415 36,000  Level Kansas City Center
Fri 11:23:02 AM 40.0783 -92.9517 241° Southwest 363 418 36,000  Level Kansas City Center
Fri 11:24:02 AM 40.0219 -93.0794 240° Southwest 364 419 36,000  Level Kansas City Center
Fri 11:25:05 AM 39.9750 -93.1911 241° Southwest 365 420 36,000  Level Kansas City Center
Fri 11:26:06 AM 39.9267 -93.3019 240° Southwest 364 419 36,000  Level Kansas City Center
Fri 11:27:09 AM 39.8661 -93.4369 240° Southwest 362 417 36,000  Level Kansas City Center
Fri 11:28:11 AM 39.8161 -93.5500 240° Southwest 363 418 36,000  Level Kansas City Center
Fri 11:29:11 AM 39.7672 -93.6628 241° Southwest 361 415 36,000  Level Kansas City Center
Fri 11:30:14 AM 39.7128 -93.7881 241° Southwest 356 410 36,000  Level Kansas City Center
Fri 11:31:15 AM 39.6653 -93.8944 240° Southwest 355 409 36,000  Level Kansas City Center
Fri 11:32:19 AM 39.6178 -94.0022 240° Southwest 359 413 36,000  Level Kansas City Center
Fri 11:33:19 AM 39.5617 -94.1267 240° Southwest 358 412 36,000  Level Kansas City Center
Fri 11:34:22 AM 39.5136 -94.2336 240° Southwest 359 413 36,000  Level Kansas City Center
Fri 11:35:23 AM 39.4581 -94.3586 240° Southwest 359 413 36,000  Level Kansas City Center
Fri 11:36:24 AM 39.4094 -94.4653 239° Southwest 359 413 36,000  Level Kansas City Center
Fri 11:37:27 AM 39.3519 -94.5883 239° Southwest 358 412 36,000  Level Kansas City Center
Fri 11:38:28 AM 39.3042 -94.6953 240° Southwest 359 413 36,000  Level Kansas City Center
Fri 11:39:29 AM 39.2172 -94.7600 210° Southwest 375 432 36,000  Level Kansas City Center
Fri 11:40:32 AM 39.1003 -94.8031 196° South 384 442 36,000  Level Kansas City Center
Fri 11:41:33 AM 38.9994 -94.8386 195° South 387 445 36,000  Level Kansas City Center
Fri 11:42:36 AM 38.8825 -94.8803 196° South 388 447 36,000  Level Kansas City Center
Fri 11:43:37 AM 38.7825 -94.9156 195° South 387 445 36,000  Level Kansas City Center
Fri 11:44:38 AM 38.6828 -94.9500 195° South 388 447 36,000  Level Kansas City Center
Fri 11:45:41 AM 38.5653 -94.9917 195° South 391 450 36,000  Level Kansas City Center
Fri 11:46:43 AM 38.4664 -95.0256 195° South 387 445 36,000  Level Kansas City Center
Fri 11:47:44 AM 38.3506 -95.0653 195° South 383 441 36,000  Level Kansas City Center
Fri 11:48:48 AM 38.2514 -95.1011 196° South 384 442 36,000  Level Kansas City Center
Fri 11:49:49 AM 38.1364 -95.1481 198° South 387 445 36,000  Level Kansas City Center
Fri 11:50:49 AM 38.0378 -95.1867 197° South 387 445 36,000  Level Kansas City Center
Fri 11:51:53 AM 37.9322 -95.2283 197° South 393 452 36,000 -48 Level Kansas City Center
Fri 11:52:54 AM 37.8292 -95.2664 196° South 388 447 35,900 -581 Descending Kansas City Center
Fri 11:53:57 AM 37.7261 -95.3111 199° South 390 449 34,800 -1,597 Descending Kansas City Center
Fri 11:54:58 AM 37.6131 -95.3783 205° Southwest 375 432 32,600 -2,238 Descending Kansas City Center
Fri 11:56:00 AM 37.5167 -95.3957 188° South  Level FlightAware Approximate
Fri 11:57:02 AM 37.4278 -95.5106 188° South 382 440 27,900  Level Kansas City Center
Fri 11:58:03 AM 37.3317 -95.5747 208° Southwest 388 447 25,500 -1,820 Descending Kansas City Center
Fri 11:59:04 AM 37.2361 -95.6389 208° Southwest 390 449 24,200 -1,306 Descending Kansas City Center
Fri 12:00:07 PM 37.1419 -95.6897 203° Southwest 383 441 22,800 -2,208 Descending Kansas City Center
Fri 12:01:09 PM 37.0128 -95.7131 188° South 388 447 19,600 -2,832 Descending Kansas City Center
Fri 12:02:12 PM 36.9044 -95.7361 190° South 393 452 16,900 -2,695 Descending Kansas City Center
Fri 12:03:07 PM 36.8072 -95.7594 191° South 362 417 14,300 -2,557 Descending Kansas City Center
Fri 12:04:14 PM 36.7083 -95.7803 190° South 323 372 11,700 -1,875 Descending Kansas City Center
Fri 12:05:15 PM 36.6297 -95.7958 189° South 320 368 10,300 -984 Descending Kansas City Center
Fri 12:06:16 PM 36.5544 -95.8189 194° South 247 284 9,700 -828 Descending Kansas City Center
Fri 12:07:11 PM 36.5125 -95.8686 224° Southwest 212 244 8,700 -1,210 Descending Kansas City Center
Fri 12:08:15 PM 36.4636 -95.9347 227° Southwest 226 260 7,300 -1,258 Descending Kansas City Center
Fri 12:09:15 PM 36.4203 -95.9922 227° Southwest 231 266 6,100 -1,154 Descending Kansas City Center
Fri 12:10:25 PM 36.3744 -96.0531 227° Southwest 230 265 4,800 -1,190 Descending Kansas City Center
Fri 12:11:11 PM 36.3353 -96.1044 227° Southwest 236 272 3,800 -1,065 Descending Kansas City Center
Fri 12:11:27 PM 36.3294 -96.1122 227° Southwest 234 269 3,700 -197 Descending Kansas City Center
Fri 12:12:12 PM 36.2872 -96.1597 222° Southwest 235 270 3,600 -188 Descending Kansas City Center
Fri 12:12:31 PM 36.2778 -96.1608 185° South 237 273 3,500 -109 Descending Kansas City Center
Fri 12:13:07 PM 36.2289 -96.1619 181° South 220 253 3,500  Level Kansas City Center
Fri 12:13:31 PM 36.2167 -96.1586 168° South 227 261 3,500 -300 Level Kansas City Center
Fri 12:14:07 PM 36.1939 -96.1197 126° Southeast 190 219 3,200 -590 Descending Kansas City Center
Fri 12:14:32 PM 36.1928 -96.0928 93° East 204 235 2,900 -295 Descending Kansas City Center
Fri 12:15:08 PM 36.1928 -96.0578 90° East 180 207 2,900  Level Kansas City Center

Login

Don't have an account? Register now (free) for customized features, flight alerts, and more!